createdAt,value
2022-10-04T00:01:58.377Z,3.03
2022-10-04T00:04:43.983Z,3.15
2022-10-04T00:07:13.510Z,5.15
2022-10-04T00:09:42.638Z,2.00
2022-10-04T00:12:16.225Z,2.25
2022-10-04T00:14:43.285Z,4.25
2022-10-04T00:17:11.693Z,2.72
2022-10-04T00:19:48.314Z,1.15
2022-10-04T00:22:17.454Z,0.95
2022-10-04T00:25:02.881Z,2.10
2022-10-04T00:27:29.338Z,3.47
2022-10-04T00:30:01.880Z,2.30
2022-10-04T00:32:37.451Z,2.15
2022-10-04T00:35:23.782Z,3.38
2022-10-04T00:37:53.110Z,3.38
2022-10-04T00:40:20.148Z,3.42
2022-10-04T00:42:49.258Z,3.67
2022-10-04T00:45:25.200Z,1.45
2022-10-04T00:47:54.404Z,4.95
2022-10-04T00:50:26.142Z,1.85
2022-10-04T00:52:55.171Z,3.65
2022-10-04T00:55:33.156Z,5.80
2022-10-04T00:58:00.581Z,2.45
2022-10-04T01:00:29.016Z,1.48
2022-10-04T01:02:58.645Z,1.65
2022-10-04T01:05:45.245Z,2.10
2022-10-04T01:08:17.304Z,3.08
2022-10-04T01:10:46.629Z,4.07
2022-10-04T01:13:16.016Z,3.38
2022-10-04T01:15:44.848Z,3.75
2022-10-04T01:18:14.494Z,5.63
2022-10-04T01:20:49.676Z,4.60
2022-10-04T01:23:34.874Z,2.28
2022-10-04T01:26:03.985Z,2.05
2022-10-04T01:28:30.504Z,6.28
2022-10-04T01:30:57.003Z,1.63
2022-10-04T01:33:25.104Z,2.03
2022-10-04T01:35:51.597Z,4.97
2022-10-04T01:38:18.095Z,2.30
2022-10-04T01:41:04.878Z,5.22
2022-10-04T01:43:33.801Z,1.58
2022-10-04T01:46:02.656Z,2.45
2022-10-04T01:48:32.102Z,2.60
2022-10-04T01:51:17.264Z,4.38
2022-10-04T01:53:53.803Z,2.30
2022-10-04T01:56:23.389Z,3.13
2022-10-04T01:58:59.189Z,4.70
2022-10-04T02:01:38.842Z,3.75
2022-10-04T02:04:25.528Z,5.65
2022-10-04T02:06:55.056Z,2.63
2022-10-04T02:09:26.646Z,1.70
2022-10-04T02:11:54.430Z,4.03
2022-10-04T02:14:22.662Z,7.20
2022-10-04T02:16:52.250Z,2.92
2022-10-04T02:19:19.488Z,3.08
2022-10-04T02:21:47.082Z,3.17
2022-10-04T02:24:13.756Z,4.18
2022-10-04T02:26:40.194Z,3.50
2022-10-04T02:29:06.619Z,4.32
2022-10-04T02:31:53.936Z,6.78
2022-10-04T02:34:20.392Z,3.67
2022-10-04T02:36:51.754Z,4.15
2022-10-04T02:39:21.364Z,3.65
2022-10-04T02:41:50.781Z,4.88
2022-10-04T02:44:29.505Z,4.35
2022-10-04T02:47:14.222Z,4.07
2022-10-04T02:49:48.767Z,3.85
2022-10-04T02:52:20.799Z,15.32
2022-10-04T02:55:02.699Z,14.43
2022-10-04T02:57:30.251Z,15.65
2022-10-04T03:00:23.098Z,14.73
2022-10-04T03:03:08.365Z,13.15
2022-10-04T03:05:35.189Z,22.17
2022-10-04T03:08:01.811Z,22.67
2022-10-04T03:10:28.155Z,5.80
2022-10-04T03:12:55.453Z,13.10
2022-10-04T03:15:22.032Z,18.90
2022-10-04T03:17:50.229Z,16.52
2022-10-04T03:20:21.318Z,11.73
2022-10-04T03:22:51.037Z,11.15
2022-10-04T03:25:19.115Z,4.10
2022-10-04T03:27:47.791Z,5.43
2022-10-04T03:30:14.674Z,9.52
2022-10-04T03:32:41.606Z,6.20
2022-10-04T03:35:17.546Z,10.40
2022-10-04T03:37:46.098Z,19.90
2022-10-04T03:40:13.805Z,14.13
2022-10-04T03:42:40.586Z,9.85
2022-10-04T03:45:08.418Z,16.13
2022-10-04T03:47:39.469Z,17.75
2022-10-04T03:50:12.940Z,11.20
2022-10-04T03:52:40.970Z,20.40
2022-10-04T03:55:08.008Z,15.00
2022-10-04T03:57:35.290Z,15.95
2022-10-04T04:00:02.119Z,17.88
2022-10-04T04:02:45.036Z,17.70
2022-10-04T04:05:21.473Z,7.72
2022-10-04T04:07:56.074Z,15.27
2022-10-04T04:10:27.310Z,23.08
2022-10-04T04:12:58.558Z,10.30
2022-10-04T04:15:28.665Z,26.17
2022-10-04T04:17:55.230Z,7.63
2022-10-04T04:20:24.901Z,4.55
2022-10-04T04:22:56.884Z,3.28
2022-10-04T04:25:24.254Z,6.50
2022-10-04T04:27:56.378Z,4.05
2022-10-04T04:30:22.729Z,7.60
2022-10-04T04:32:51.276Z,6.45
2022-10-04T04:35:22.565Z,3.42
2022-10-04T04:38:02.864Z,8.60
2022-10-04T04:40:29.343Z,8.13
2022-10-04T04:42:57.403Z,6.03
2022-10-04T04:45:30.095Z,9.98
2022-10-04T04:48:01.240Z,7.15
2022-10-04T04:50:34.997Z,8.93
2022-10-04T04:53:04.755Z,12.90
2022-10-04T04:55:56.701Z,10.40
2022-10-04T04:58:27.567Z,5.90
2022-10-04T05:01:04.428Z,17.60
2022-10-04T05:03:31.277Z,8.48
2022-10-04T05:06:04.855Z,6.78
2022-10-04T05:08:36.003Z,5.47
2022-10-04T05:11:08.552Z,6.43
2022-10-04T05:13:47.416Z,6.68
2022-10-04T05:16:16.811Z,6.05
2022-10-04T05:18:43.555Z,16.77
2022-10-04T05:21:20.632Z,9.95
2022-10-04T05:23:47.626Z,11.85
2022-10-04T05:26:14.617Z,11.55
2022-10-04T05:28:41.492Z,7.60
2022-10-04T05:31:32.458Z,10.60
2022-10-04T05:33:59.348Z,7.63
2022-10-04T05:36:48.091Z,9.98
2022-10-04T05:39:50.390Z,8.10
2022-10-04T05:42:23.604Z,12.13
2022-10-04T05:47:38.839Z,5.57
2022-10-04T05:50:27.988Z,9.15
2022-10-04T05:53:35.239Z,11.38
2022-10-04T05:56:20.185Z,12.15
2022-10-04T05:59:15.787Z,10.77
2022-10-04T06:02:00.995Z,10.52
2022-10-04T06:04:27.417Z,14.02
2022-10-04T06:06:56.948Z,38.28
2022-10-04T06:09:42.286Z,11.77
2022-10-04T06:12:08.632Z,17.15
2022-10-04T06:14:58.513Z,15.95
2022-10-04T06:17:41.306Z,12.50
2022-10-04T06:20:07.689Z,11.95
2022-10-04T06:22:34.259Z,14.20
2022-10-04T06:25:01.854Z,12.52
2022-10-04T06:27:37.114Z,9.90
2022-10-04T06:30:11.715Z,18.48
2022-10-04T06:32:38.284Z,12.00
2022-10-04T06:35:10.764Z,10.27
2022-10-04T06:38:00.696Z,11.52
2022-10-04T06:40:36.108Z,14.77
2022-10-04T06:43:08.677Z,12.73
2022-10-04T06:45:38.169Z,12.45
2022-10-04T06:48:23.564Z,11.30
2022-10-04T06:50:53.895Z,13.02
2022-10-04T06:53:26.368Z,17.98
2022-10-04T06:56:05.616Z,9.52
2022-10-04T06:58:44.183Z,13.40
2022-10-04T07:01:26.977Z,16.40
2022-10-04T07:03:57.438Z,11.85
2022-10-04T07:06:25.995Z,10.70
2022-10-04T07:08:56.180Z,9.25
2022-10-04T07:11:43.461Z,13.15
2022-10-04T07:14:13.589Z,11.98
2022-10-04T07:16:51.320Z,8.35
2022-10-04T07:19:20.978Z,11.57
2022-10-04T07:21:47.510Z,30.02
2022-10-04T07:24:21.102Z,14.43
2022-10-04T07:27:03.811Z,12.68
2022-10-04T07:32:40.100Z,12.77
2022-10-04T07:35:09.910Z,13.48
2022-10-04T07:37:50.578Z,13.77
2022-10-04T07:40:30.046Z,7.22
2022-10-04T07:43:14.647Z,9.45
2022-10-04T07:45:42.013Z,12.48
2022-10-04T07:48:25.022Z,13.57
2022-10-04T07:51:11.638Z,10.73
2022-10-04T07:57:00.153Z,10.77
2022-10-04T07:59:33.768Z,19.00
2022-10-04T08:02:25.600Z,19.35
2022-10-04T08:09:04.053Z,11.82
2022-10-04T08:11:37.213Z,14.05
2022-10-04T08:16:59.227Z,11.68
2022-10-04T08:19:47.486Z,14.95
2022-10-04T08:25:28.288Z,12.95
2022-10-04T08:28:24.362Z,12.27
2022-10-04T08:31:12.159Z,11.98
2022-10-04T08:42:49.934Z,9.07
2022-10-04T08:45:17.080Z,7.10
2022-10-04T08:47:58.561Z,7.60
2022-10-04T08:50:44.879Z,8.23
2022-10-04T08:53:30.931Z,8.68
2022-10-04T08:59:04.233Z,5.25
2022-10-04T09:01:44.326Z,8.82
2022-10-04T09:04:40.860Z,10.57
2022-10-04T09:07:40.040Z,9.23
2022-10-04T09:10:33.538Z,10.93
2022-10-04T09:13:15.208Z,8.50
2022-10-04T09:15:41.734Z,8.15
2022-10-04T09:18:15.266Z,7.70
2022-10-04T09:20:54.585Z,14.00
2022-10-04T09:23:43.725Z,13.05
2022-10-04T09:26:13.558Z,10.75
2022-10-04T09:29:03.924Z,10.75
2022-10-04T09:31:50.513Z,11.75
2022-10-04T09:34:37.636Z,12.07
2022-10-04T09:37:10.433Z,9.98
2022-10-04T09:39:44.415Z,9.30
2022-10-04T09:42:34.382Z,12.85
2022-10-04T09:45:39.403Z,14.15
2022-10-04T09:48:07.464Z,11.23
2022-10-04T09:50:43.163Z,14.05
2022-10-04T09:53:28.073Z,16.23
2022-10-04T09:56:00.428Z,18.65
2022-10-04T09:58:36.332Z,12.10
2022-10-04T10:01:26.119Z,10.68
2022-10-04T10:03:55.420Z,10.40
2022-10-04T10:06:26.269Z,10.57
2022-10-04T10:09:07.934Z,7.03
2022-10-04T10:12:07.522Z,9.60
2022-10-04T10:14:57.068Z,10.30
2022-10-04T10:17:42.899Z,13.57
2022-10-04T10:20:11.880Z,10.18
2022-10-04T10:22:53.132Z,8.48
2022-10-04T10:25:22.671Z,9.85
2022-10-04T10:27:51.584Z,8.38
2022-10-04T10:30:29.521Z,8.05
2022-10-04T10:33:23.291Z,12.55
2022-10-04T10:36:10.281Z,9.57
2022-10-04T10:38:49.932Z,8.70
2022-10-04T10:41:22.352Z,11.07
2022-10-04T10:44:04.761Z,9.50
2022-10-04T10:46:57.158Z,6.53
2022-10-04T10:49:32.797Z,6.55
2022-10-04T10:52:23.118Z,6.35
2022-10-04T10:55:12.196Z,7.30
2022-10-04T10:58:17.315Z,8.80
2022-10-04T11:00:52.762Z,5.60
2022-10-04T11:03:32.530Z,8.77
2022-10-04T11:06:17.417Z,5.07
2022-10-04T11:09:02.668Z,7.93
2022-10-04T11:11:50.545Z,6.57
2022-10-04T11:14:35.650Z,9.65
2022-10-04T11:17:11.225Z,10.48
2022-10-04T11:19:41.295Z,10.02
2022-10-04T11:22:26.336Z,5.73
2022-10-04T11:25:29.759Z,9.68
2022-10-04T11:28:07.890Z,9.77
2022-10-04T11:31:02.849Z,11.35
2022-10-04T11:33:35.583Z,6.43
2022-10-04T11:36:01.922Z,6.07
2022-10-04T11:38:49.645Z,11.40
2022-10-04T11:41:39.388Z,7.68
2022-10-04T11:44:18.761Z,6.88
2022-10-04T11:46:55.492Z,9.43
2022-10-04T11:49:40.585Z,6.40
2022-10-04T11:52:26.643Z,8.00
2022-10-04T11:55:12.947Z,8.40
2022-10-04T11:57:39.295Z,7.22
2022-10-04T12:00:09.747Z,5.50
2022-10-04T12:02:50.509Z,6.47
2022-10-04T12:05:35.322Z,4.47
2022-10-04T12:08:22.906Z,4.72
2022-10-04T12:11:05.741Z,5.28
2022-10-04T12:13:50.702Z,8.13
2022-10-04T12:16:43.851Z,8.07
2022-10-04T12:19:20.963Z,5.78
2022-10-04T12:22:06.976Z,7.93
2022-10-04T12:24:52.327Z,6.97
2022-10-04T12:27:39.622Z,7.10
2022-10-04T12:30:28.287Z,6.63
2022-10-04T12:33:16.165Z,10.45
2022-10-04T12:35:53.176Z,7.05
2022-10-04T12:38:41.158Z,6.10
2022-10-04T12:41:07.555Z,6.80
2022-10-04T12:43:53.654Z,12.48
2022-10-04T12:46:32.475Z,9.95
2022-10-04T12:49:12.638Z,6.28
2022-10-04T12:52:04.293Z,9.30
2022-10-04T12:54:45.027Z,6.95
2022-10-04T12:57:14.358Z,7.28
2022-10-04T13:00:00.755Z,6.47
2022-10-04T13:02:36.277Z,8.52
2022-10-04T13:05:18.163Z,10.25
2022-10-04T13:08:03.591Z,11.57
2022-10-04T13:10:36.050Z,8.20
2022-10-04T13:13:23.470Z,9.07
2022-10-04T13:18:56.672Z,6.35
2022-10-04T13:21:23.048Z,9.63
2022-10-04T13:24:08.838Z,6.30
2022-10-04T13:26:48.812Z,9.55
2022-10-04T13:29:31.002Z,8.73
2022-10-04T13:31:58.798Z,5.07
2022-10-04T13:34:31.372Z,4.97
2022-10-04T13:37:18.974Z,8.75
2022-10-04T13:39:49.139Z,8.23
2022-10-04T13:42:20.621Z,13.55
2022-10-04T13:45:05.503Z,12.68
2022-10-04T13:47:49.313Z,10.40
2022-10-04T13:50:17.493Z,6.90
2022-10-04T13:53:20.546Z,10.65
2022-10-04T13:56:18.059Z,5.28
2022-10-04T13:59:00.486Z,6.82
2022-10-04T14:01:48.354Z,7.38
2022-10-04T14:04:45.149Z,11.00
2022-10-04T14:07:14.634Z,7.60
2022-10-04T14:09:44.094Z,9.63
2022-10-04T14:12:30.846Z,7.25
2022-10-04T14:15:04.472Z,10.68
2022-10-04T14:18:06.416Z,11.77
2022-10-04T14:20:53.087Z,7.50
2022-10-04T14:23:28.964Z,13.65
2022-10-04T14:26:15.691Z,9.60
2022-10-04T14:28:45.546Z,8.75
2022-10-04T14:31:24.250Z,14.15
2022-10-04T14:33:50.638Z,10.15
2022-10-04T14:36:33.068Z,6.82
2022-10-04T14:39:08.822Z,10.07
2022-10-04T14:41:55.797Z,12.38
2022-10-04T14:44:41.652Z,9.40
2022-10-04T14:47:15.987Z,9.77
2022-10-04T14:50:00.337Z,13.63
2022-10-04T14:52:35.867Z,9.20
2022-10-04T14:55:17.436Z,12.98
2022-10-04T14:58:13.863Z,7.75
2022-10-04T15:01:00.538Z,8.60
2022-10-04T15:03:28.943Z,11.02
2022-10-04T15:06:03.041Z,10.50
2022-10-04T15:08:48.242Z,11.02
2022-10-04T15:11:17.709Z,14.68
2022-10-04T15:14:04.593Z,8.65
2022-10-04T15:16:33.840Z,13.70
2022-10-04T15:19:20.803Z,11.68
2022-10-04T15:22:01.781Z,10.20
2022-10-04T15:24:30.138Z,13.73
2022-10-04T15:27:15.199Z,15.07
2022-10-04T15:30:00.486Z,9.80
2022-10-04T15:32:35.582Z,7.75
2022-10-04T15:35:03.494Z,8.82
2022-10-04T15:37:29.998Z,11.93
2022-10-04T15:40:02.494Z,13.50
2022-10-04T15:42:32.646Z,12.05
2022-10-04T15:45:17.039Z,11.68
2022-10-04T15:48:02.223Z,9.63
2022-10-04T15:50:38.446Z,10.18
2022-10-04T15:53:26.159Z,8.80
2022-10-04T15:56:04.618Z,11.32
2022-10-04T15:58:31.199Z,11.55
2022-10-04T16:01:06.089Z,6.13
2022-10-04T16:03:38.527Z,12.93
2022-10-04T16:06:17.159Z,7.00
2022-10-04T16:08:50.000Z,9.25
2022-10-04T16:11:25.595Z,14.65
2022-10-04T16:13:51.916Z,7.68
2022-10-04T16:16:19.365Z,12.73
2022-10-04T16:18:51.364Z,8.45
2022-10-04T16:21:37.095Z,16.77
2022-10-04T16:24:21.998Z,13.30
2022-10-04T16:26:51.283Z,6.88
2022-10-04T16:29:18.374Z,7.80
2022-10-04T16:31:50.754Z,15.27
2022-10-04T16:34:17.144Z,10.95
2022-10-04T16:36:49.350Z,8.18
2022-10-04T16:39:52.893Z,10.43
2022-10-04T16:42:21.451Z,12.30
2022-10-04T16:44:54.884Z,10.70
2022-10-04T16:47:21.219Z,13.45
2022-10-04T16:49:54.938Z,9.18
2022-10-04T16:52:21.299Z,5.85
2022-10-04T16:55:03.535Z,10.98
2022-10-04T16:57:30.020Z,11.80
2022-10-04T16:59:57.751Z,14.57
2022-10-04T17:02:31.267Z,10.93
2022-10-04T17:05:01.028Z,12.05
2022-10-04T17:07:27.418Z,7.68
2022-10-04T17:10:18.922Z,9.77
2022-10-04T17:12:48.740Z,10.60
2022-10-04T17:15:15.093Z,12.65
2022-10-04T17:18:00.489Z,10.02
2022-10-04T17:20:26.890Z,14.32
2022-10-04T17:23:04.655Z,15.30
2022-10-04T17:25:51.871Z,8.25
2022-10-04T17:28:18.241Z,10.63
2022-10-04T17:30:54.048Z,14.75
2022-10-04T17:33:50.453Z,14.10
2022-10-04T17:36:17.029Z,11.10
2022-10-04T17:38:46.971Z,14.50
2022-10-04T17:41:13.330Z,10.65
2022-10-04T17:43:46.595Z,10.27
2022-10-04T17:46:38.006Z,12.25
2022-10-04T17:49:30.180Z,8.65
2022-10-04T17:52:15.678Z,8.60
2022-10-04T17:55:03.201Z,13.32
2022-10-04T17:57:37.794Z,11.90
2022-10-04T18:00:13.433Z,10.77
2022-10-04T18:02:42.842Z,20.48
2022-10-04T18:05:21.583Z,13.52
2022-10-04T18:07:49.553Z,10.93
2022-10-04T18:10:24.559Z,15.57
2022-10-04T18:13:06.682Z,19.88
2022-10-04T18:15:38.862Z,14.80
2022-10-04T18:18:08.371Z,10.40
2022-10-04T18:20:37.248Z,19.00
2022-10-04T18:23:17.441Z,11.13
2022-10-04T18:25:44.750Z,12.32
2022-10-04T18:28:13.626Z,14.32
2022-10-04T18:30:51.686Z,14.00
2022-10-04T18:33:33.275Z,15.90
2022-10-04T18:36:02.759Z,12.35
2022-10-04T18:38:30.057Z,12.35
2022-10-04T18:40:59.534Z,16.20
2022-10-04T18:43:29.857Z,17.15
2022-10-04T18:46:05.007Z,14.82
2022-10-04T18:48:40.109Z,17.00
2022-10-04T18:51:23.222Z,15.93
2022-10-04T18:54:09.943Z,17.80
2022-10-04T18:56:44.289Z,19.75
2022-10-04T18:59:38.436Z,15.35
2022-10-04T19:02:04.991Z,25.23
2022-10-04T19:04:50.398Z,21.95
2022-10-04T19:07:16.779Z,19.10
2022-10-04T19:09:43.115Z,19.38
2022-10-04T19:12:13.461Z,22.20
2022-10-04T19:14:53.728Z,17.50
2022-10-04T19:17:28.388Z,18.20
2022-10-04T19:20:03.530Z,19.20
2022-10-04T19:22:42.202Z,14.68
2022-10-04T19:25:39.401Z,21.67
2022-10-04T19:28:15.088Z,24.38
2022-10-04T19:30:54.262Z,20.52
2022-10-04T19:33:29.404Z,24.67
2022-10-04T19:36:03.613Z,17.75
2022-10-04T19:38:32.923Z,22.33
2022-10-04T19:41:07.912Z,19.27
2022-10-04T19:43:42.813Z,16.35
2022-10-04T19:46:18.537Z,14.57
2022-10-04T19:48:52.390Z,18.98
2022-10-04T19:51:19.655Z,15.10
2022-10-04T19:53:46.931Z,18.70
2022-10-04T19:56:18.005Z,25.15
2022-10-04T19:59:04.755Z,19.58
2022-10-04T20:01:31.158Z,15.50
2022-10-04T20:04:16.239Z,16.20
2022-10-04T20:06:55.678Z,12.57
2022-10-04T20:09:31.125Z,12.32
2022-10-04T20:11:57.692Z,11.18
2022-10-04T20:14:27.049Z,12.27
2022-10-04T20:16:53.582Z,14.82
2022-10-04T20:19:36.226Z,11.32
2022-10-04T20:22:10.087Z,15.00
2022-10-04T20:24:36.456Z,16.02
2022-10-04T20:27:21.637Z,11.57
2022-10-04T20:29:58.971Z,15.80
2022-10-04T20:32:29.851Z,12.82
2022-10-04T20:34:57.034Z,12.85
2022-10-04T20:37:42.205Z,18.02
2022-10-04T20:40:08.652Z,12.68
2022-10-04T20:42:38.811Z,11.30
2022-10-04T20:45:11.265Z,13.68
2022-10-04T20:47:40.777Z,10.30
2022-10-04T20:50:10.154Z,17.25
2022-10-04T20:52:36.806Z,10.52
2022-10-04T20:55:28.263Z,9.70
2022-10-04T20:57:55.480Z,11.05
2022-10-04T21:00:23.713Z,8.80
2022-10-04T21:02:50.294Z,8.95
2022-10-04T21:05:27.212Z,9.35
2022-10-04T21:08:32.351Z,15.30
2022-10-04T21:11:20.054Z,8.90
2022-10-04T21:13:57.282Z,10.48
2022-10-04T21:16:35.764Z,11.57
2022-10-04T21:19:20.921Z,18.33
2022-10-04T21:21:47.927Z,10.50
2022-10-04T21:24:33.211Z,9.45
2022-10-04T21:26:59.547Z,11.23
2022-10-04T21:29:25.912Z,9.57
2022-10-04T21:31:52.354Z,8.25
2022-10-04T21:34:41.376Z,10.75
2022-10-04T21:37:10.535Z,11.23
2022-10-04T21:39:36.988Z,9.73
2022-10-04T21:42:03.551Z,8.05
2022-10-04T21:44:29.975Z,12.27
2022-10-04T21:46:56.363Z,10.25
2022-10-04T21:49:22.767Z,12.80
2022-10-04T21:51:50.208Z,15.40
2022-10-04T21:54:16.671Z,9.00
2022-10-04T21:56:43.295Z,9.90
2022-10-04T21:59:10.169Z,8.23
2022-10-04T22:01:36.739Z,12.10
2022-10-04T22:04:03.111Z,10.13
2022-10-04T22:06:29.556Z,11.50
2022-10-04T22:08:55.892Z,11.00
2022-10-04T22:11:22.225Z,14.00
2022-10-04T22:13:49.001Z,18.27
2022-10-04T22:16:15.518Z,14.77
2022-10-04T22:18:41.953Z,15.43
2022-10-04T22:21:10.402Z,15.50
2022-10-04T22:23:38.603Z,11.98
2022-10-04T22:26:15.366Z,10.45
2022-10-04T22:28:47.290Z,12.48
2022-10-04T22:31:14.956Z,12.68
2022-10-04T22:33:42.530Z,11.45
2022-10-04T22:36:26.600Z,14.73
2022-10-04T22:39:08.240Z,13.60
2022-10-04T22:41:45.269Z,17.35
2022-10-04T22:44:14.743Z,19.63
2022-10-04T22:46:42.822Z,16.17
2022-10-04T22:49:14.152Z,14.32
2022-10-04T22:51:44.775Z,14.07
2022-10-04T22:54:12.520Z,16.92
2022-10-04T22:56:39.085Z,14.40
2022-10-04T22:59:05.763Z,15.98
2022-10-04T23:01:32.105Z,12.35
2022-10-04T23:03:58.417Z,12.52
2022-10-04T23:06:24.762Z,16.33
2022-10-04T23:08:54.752Z,19.27
2022-10-04T23:11:22.145Z,11.63
2022-10-04T23:13:48.475Z,13.45
2022-10-04T23:16:20.145Z,14.85
2022-10-04T23:18:46.516Z,11.82
2022-10-04T23:21:23.590Z,13.18
2022-10-04T23:23:50.645Z,15.15
2022-10-04T23:26:21.028Z,21.67
2022-10-04T23:28:47.368Z,15.38
2022-10-04T23:31:17.229Z,17.77
2022-10-04T23:33:43.692Z,13.70
2022-10-04T23:36:11.941Z,17.88
2022-10-04T23:38:38.360Z,20.30
2022-10-04T23:41:09.635Z,19.00
2022-10-04T23:43:36.038Z,21.95
2022-10-04T23:46:09.707Z,22.75
2022-10-04T23:48:36.177Z,16.02
2022-10-04T23:51:02.557Z,14.88
2022-10-04T23:53:31.152Z,18.85
2022-10-04T23:55:58.802Z,21.67
2022-10-04T23:58:26.501Z,15.60
